createdAt,value
2019-02-26T10:02:44.645Z,33.45
2019-02-26T10:03:22.866Z,33.45
2019-02-26T10:03:58.321Z,33.17
2019-02-26T10:04:36.708Z,33.07
2019-02-26T10:05:11.775Z,33.36
2019-02-26T10:05:55.092Z,33.36
2019-02-26T10:06:29.418Z,33.45
2019-02-26T10:07:06.725Z,33.75
2019-02-26T10:07:45.979Z,33.55
2019-02-26T10:08:22.283Z,33.65
2019-02-26T10:09:01.777Z,32.97
2019-02-26T10:09:40.443Z,33.26
2019-02-26T10:10:19.763Z,33.26
2019-02-26T10:10:56.849Z,33.07
2019-02-26T10:11:35.894Z,33.26
2019-02-26T10:12:15.635Z,33.26
2019-02-26T10:12:47.752Z,33.26
2019-02-26T10:13:27.683Z,33.07
2019-02-26T10:13:59.872Z,33.18
2019-02-26T10:14:38.919Z,33.07
2019-02-26T10:15:10.913Z,33.28
2019-02-26T10:15:45.179Z,33.28
2019-02-26T10:16:17.203Z,33.28
2019-02-26T10:16:54.286Z,33.28
2019-02-26T10:17:28.547Z,33.67
2019-02-26T10:18:06.700Z,33.28
2019-02-26T10:18:41.025Z,33.37
2019-02-26T10:19:17.157Z,33.37
2019-02-26T10:19:51.169Z,33.28
2019-02-26T10:20:31.877Z,33.37
2019-02-26T10:21:05.872Z,33.47
2019-02-26T10:21:48.209Z,33.37
2019-02-26T10:22:20.221Z,33.37
2019-02-26T10:22:55.570Z,33.37
2019-02-26T10:23:37.332Z,33.47
2019-02-26T10:24:09.381Z,33.37
2019-02-26T10:24:41.359Z,33.37
2019-02-26T10:25:15.838Z,33.37
2019-02-26T10:25:47.835Z,33.39
2019-02-26T10:26:38.290Z,33.37
2019-02-26T10:27:16.761Z,33.39
2019-02-26T10:27:48.770Z,33.29
2019-02-26T10:28:22.428Z,33.39
2019-02-26T10:29:04.726Z,33.29
2019-02-26T10:29:45.010Z,33.29
2019-02-26T10:30:21.180Z,33.29
2019-02-26T10:30:59.619Z,33.39
2019-02-26T10:31:41.642Z,33.39
2019-02-26T10:32:13.651Z,33.29
2019-02-26T10:32:47.333Z,33.39
2019-02-26T10:33:21.634Z,33.39
2019-02-26T10:33:53.668Z,33.29
2019-02-26T10:34:30.605Z,33.39
2019-02-26T10:35:04.569Z,33.39
2019-02-26T10:35:50.532Z,33.29
2019-02-26T10:36:22.510Z,33.39
2019-02-26T10:36:54.485Z,33.41
2019-02-26T10:37:26.524Z,33.41
2019-02-26T10:38:08.121Z,33.31
2019-02-26T10:38:43.063Z,33.22
2019-02-26T10:39:20.145Z,33.22
2019-02-26T10:39:59.245Z,33.22
2019-02-26T10:40:50.436Z,33.41
2019-02-26T10:41:36.841Z,33.22
2019-02-26T10:42:18.885Z,33.12
2019-02-26T10:42:50.875Z,33.31
2019-02-26T10:43:22.857Z,33.31
2019-02-26T10:43:54.869Z,33.31
2019-02-26T10:44:26.866Z,33.51
2019-02-26T10:44:58.859Z,33.31
2019-02-26T10:45:30.853Z,33.62
2019-02-26T10:46:16.176Z,33.42
2019-02-26T10:46:48.182Z,33.81
2019-02-26T10:47:20.179Z,33.42
2019-02-26T10:48:01.803Z,33.42
2019-02-26T10:48:33.942Z,33.42
2019-02-26T10:49:05.958Z,33.42
2019-02-26T10:49:37.982Z,33.42
2019-02-26T10:50:13.447Z,33.42
2019-02-26T10:50:57.227Z,33.42
2019-02-26T10:51:29.231Z,33.23
2019-02-26T10:52:01.217Z,33.42
2019-02-26T10:52:33.201Z,33.14
2019-02-26T10:53:13.678Z,33.34
2019-02-26T10:53:53.931Z,33.34
2019-02-26T10:54:40.173Z,33.15
2019-02-26T10:55:24.211Z,33.15
2019-02-26T10:56:13.170Z,33.25
2019-02-26T10:56:45.412Z,33.34
2019-02-26T10:57:17.421Z,33.25
2019-02-26T10:57:49.447Z,33.25
2019-02-26T10:58:24.044Z,33.44
2019-02-26T10:59:06.016Z,33.44
2019-02-26T10:59:49.666Z,33.25
2019-02-26T11:00:25.757Z,33.25
2019-02-26T11:01:09.018Z,33.34
2019-02-26T11:01:41.073Z,33.44
2019-02-26T11:02:17.737Z,33.36
2019-02-26T11:02:58.807Z,32.87
2019-02-26T11:03:40.715Z,32.87
2019-02-26T11:04:23.050Z,33.26
2019-02-26T11:05:14.094Z,33.07
2019-02-26T11:05:57.632Z,33.07
2019-02-26T11:06:35.950Z,32.39
2019-02-26T11:07:17.807Z,33.17
2019-02-26T11:07:49.842Z,32.39
2019-02-26T11:08:35.363Z,33.36
2019-02-26T11:09:07.361Z,33.28
2019-02-26T11:09:39.330Z,33.09
2019-02-26T11:10:15.446Z,32.79
2019-02-26T11:10:56.233Z,32.99
2019-02-26T11:11:30.337Z,32.89
2019-02-26T11:12:09.037Z,32.89
2019-02-26T11:12:41.041Z,32.89
2019-02-26T11:13:17.650Z,32.99
2019-02-26T11:13:57.022Z,32.99
2019-02-26T11:14:30.807Z,33.11
2019-02-26T11:15:14.666Z,33.2
2019-02-26T11:15:51.547Z,33.01
2019-02-26T11:16:39.126Z,32.81
2019-02-26T11:17:11.199Z,32.81
2019-02-26T11:17:46.235Z,32.91
2019-02-26T11:18:26.785Z,33.2
2019-02-26T11:19:02.321Z,32.81
2019-02-26T11:19:43.355Z,33.11
2019-02-26T11:20:15.346Z,32.91
2019-02-26T11:20:52.807Z,33.01
2019-02-26T11:21:30.629Z,32.82
2019-02-26T11:22:04.708Z,33.01
2019-02-26T11:22:36.668Z,32.64
2019-02-26T11:23:17.910Z,32.34
2019-02-26T11:23:49.909Z,32.24
2019-02-26T11:24:25.787Z,32.44
2019-02-26T11:25:06.973Z,32.44
2019-02-26T11:25:39.140Z,32.34
2019-02-26T11:26:15.313Z,32.64
2019-02-26T11:26:50.481Z,32.55
2019-02-26T11:27:22.506Z,32.54
2019-02-26T11:27:54.499Z,32.45
2019-02-26T11:28:32.919Z,32.55
2019-02-26T11:29:16.355Z,32.45
2019-02-26T11:29:48.359Z,32.75
2019-02-26T11:30:25.822Z,32.35
2019-02-26T11:31:03.491Z,32.35
2019-02-26T11:31:39.558Z,32.07
2019-02-26T11:32:20.647Z,32.17
2019-02-26T11:33:01.895Z,32.17
2019-02-26T11:33:44.127Z,32.35
2019-02-26T11:34:16.105Z,32.47
2019-02-26T11:34:50.206Z,32.47
2019-02-26T11:35:30.709Z,32.37
2019-02-26T11:36:05.418Z,32.37
2019-02-26T11:36:46.661Z,32.47
2019-02-26T11:37:22.522Z,32.08
2019-02-26T11:38:02.811Z,32.08
2019-02-26T11:38:39.514Z,32.28
2019-02-26T11:39:18.258Z,32.28
2019-02-26T11:39:54.997Z,32.08
2019-02-26T11:40:33.672Z,32.2
2019-02-26T11:41:05.742Z,32
2019-02-26T11:41:37.726Z,32.29
2019-02-26T11:42:10.997Z,32.29
2019-02-26T11:42:46.704Z,32.1
2019-02-26T11:43:28.872Z,32.2
2019-02-26T11:44:00.973Z,32
2019-02-26T11:44:38.206Z,32.29
2019-02-26T11:45:16.608Z,31.81
2019-02-26T11:45:51.071Z,31.82
2019-02-26T11:46:27.110Z,32.1
2019-02-26T11:47:05.409Z,32.11
2019-02-26T11:47:43.670Z,31.92
2019-02-26T11:48:18.147Z,31.53
2019-02-26T11:48:58.602Z,31.63
2019-02-26T11:49:31.621Z,31.63
2019-02-26T11:50:12.221Z,31.73
2019-02-26T11:50:45.495Z,31.82
2019-02-26T11:51:20.352Z,31.73
2019-02-26T11:51:52.342Z,31.43
2019-02-26T11:52:24.313Z,31.43
2019-02-26T11:52:56.297Z,31.35
2019-02-26T11:53:30.703Z,31.35
2019-02-26T11:54:08.168Z,31.45
2019-02-26T11:54:48.613Z,31.35
2019-02-26T11:55:20.631Z,31.45
2019-02-26T11:56:01.828Z,31.64
2019-02-26T11:56:33.964Z,31.64
2019-02-26T11:57:15.170Z,31.25
2019-02-26T11:57:50.265Z,31.17
2019-02-26T11:58:26.811Z,31.25
2019-02-26T11:58:58.924Z,31.17
2019-02-26T11:59:35.563Z,31.27
2019-02-26T12:00:25.309Z,31.07
2019-02-26T12:01:10.721Z,31.37
2019-02-26T12:01:42.714Z,31.27
2019-02-26T12:02:14.715Z,31.27
2019-02-26T12:03:05.186Z,31.48
2019-02-26T12:03:42.299Z,31.09
2019-02-26T12:04:17.541Z,30.99
2019-02-26T12:04:49.527Z,31.19
2019-02-26T12:05:31.299Z,31.28
2019-02-26T12:06:12.693Z,30.99
2019-02-26T12:06:44.701Z,31.19
2019-02-26T12:07:16.709Z,30.8
2019-02-26T12:07:51.941Z,30.8
2019-02-26T12:08:30.029Z,30.99
2019-02-26T12:09:08.230Z,30.91
2019-02-26T12:09:47.365Z,30.81
2019-02-26T12:10:19.348Z,30.91
2019-02-26T12:10:57.433Z,30.71
2019-02-26T12:11:44.221Z,30.62
2019-02-26T12:12:16.207Z,30.71
2019-02-26T12:12:54.002Z,30.71
2019-02-26T12:13:33.276Z,30.63
2019-02-26T12:14:05.280Z,30.73
2019-02-26T12:14:46.556Z,30.73
2019-02-26T12:15:20.371Z,30.73
2019-02-26T12:15:52.342Z,30.83
2019-02-26T12:16:24.322Z,30.73
2019-02-26T12:16:59.703Z,30.63
2019-02-26T12:17:31.719Z,30.73
2019-02-26T12:18:03.735Z,30.63
2019-02-26T12:18:39.102Z,30.34
2019-02-26T12:19:18.057Z,30.54
2019-02-26T12:19:53.841Z,30.54
2019-02-26T12:20:31.610Z,30.55
2019-02-26T12:21:07.867Z,30.65
2019-02-26T12:21:44.314Z,30.55
2019-02-26T12:22:20.195Z,30.45
2019-02-26T12:23:00.149Z,30.16
2019-02-26T12:23:34.306Z,30.26
2019-02-26T12:24:14.866Z,30.26
2019-02-26T12:24:55.683Z,30.57
2019-02-26T12:25:38.826Z,30.47
2019-02-26T12:26:10.810Z,30.27
2019-02-26T12:26:47.607Z,30.27
2019-02-26T12:27:25.589Z,29.88
2019-02-26T12:27:57.571Z,29.79
2019-02-26T12:28:40.766Z,29.69
2019-02-26T12:29:12.768Z,29.79
2019-02-26T12:29:51.697Z,29.79
2019-02-26T12:30:26.330Z,29.98
2019-02-26T12:31:01.225Z,30.19
2019-02-26T12:31:43.526Z,29.99
2019-02-26T12:32:19.880Z,29.7
2019-02-26T12:32:59.813Z,29.8
2019-02-26T12:33:33.007Z,29.6
2019-02-26T12:34:04.982Z,29.6
2019-02-26T12:34:44.664Z,29.6
2019-02-26T12:35:22.932Z,29.61
2019-02-26T12:36:01.952Z,29.61
2019-02-26T12:36:41.231Z,29.52
2019-02-26T12:37:13.732Z,29.61
2019-02-26T12:37:50.102Z,29.61
2019-02-26T12:38:53.426Z,29.42
2019-02-26T12:39:33.190Z,29.73
2019-02-26T12:40:05.219Z,29.44
2019-02-26T12:40:44.065Z,29.44
2019-02-26T12:41:24.445Z,29.34
2019-02-26T12:41:56.436Z,29.44
2019-02-26T12:42:28.617Z,29.34
2019-02-26T12:43:08.410Z,28.94
2019-02-26T12:43:50.314Z,29.04
2019-02-26T12:44:22.305Z,29.06
2019-02-26T12:44:57.223Z,29.06
2019-02-26T12:45:41.584Z,29.35
2019-02-26T12:46:14.093Z,29.16
2019-02-26T12:46:50.867Z,28.96
2019-02-26T12:47:31.316Z,28.86
2019-02-26T12:48:03.346Z,28.86
2019-02-26T12:48:46.940Z,28.86
2019-02-26T12:49:23.034Z,28.88
2019-02-26T12:49:58.549Z,28.97
2019-02-26T12:50:42.408Z,28.88
2019-02-26T12:51:14.627Z,28.88
2019-02-26T12:51:50.454Z,28.78
2019-02-26T12:52:31.373Z,28.78
2019-02-26T12:53:03.997Z,28.79
2019-02-26T12:53:40.404Z,28.89
2019-02-26T12:54:21.011Z,28.99
2019-02-26T12:54:57.701Z,28.79
2019-02-26T12:57:43.915Z,28.4
2019-02-26T12:58:28.450Z,28.5
2019-02-26T12:59:00.428Z,28.5
2019-02-26T12:59:32.566Z,28.61
2019-02-26T13:00:04.559Z,28.61
2019-02-26T13:00:44.083Z,28.31
2019-02-26T13:01:16.129Z,28.71
2019-02-26T13:01:52.018Z,28.51
2019-02-26T13:02:26.129Z,28.22
2019-02-26T13:02:58.155Z,28.41
2019-02-26T13:03:30.158Z,28.23
2019-02-26T13:04:02.118Z,28.53
2019-02-26T13:04:34.119Z,28.53
2019-02-26T13:07:54.705Z,27.84
2019-02-26T13:08:26.681Z,27.84
2019-02-26T13:08:58.668Z,28.05
2019-02-26T13:09:30.661Z,28.05
2019-02-26T13:10:05.102Z,27.85
2019-02-26T13:10:42.273Z,28.15
2019-02-26T13:11:29.343Z,28.05
2019-02-26T13:12:03.364Z,28.05
2019-02-26T13:12:35.382Z,28.05
2019-02-26T13:13:08.449Z,28.15
2019-02-26T13:13:40.468Z,27.97
2019-02-26T13:14:12.472Z,27.87
2019-02-26T13:14:50.169Z,27.67
2019-02-26T13:15:39.551Z,27.67
2019-02-26T13:16:11.732Z,27.57
2019-02-26T13:16:48.728Z,27.77
2019-02-26T13:17:32.860Z,27.47
2019-02-26T13:18:04.994Z,27.67
2019-02-26T13:18:36.984Z,27.87
2019-02-26T13:19:08.962Z,27.59
2019-02-26T13:19:40.933Z,27.69
2019-02-26T13:20:12.922Z,27.59
2019-02-26T13:20:44.930Z,27.49
2019-02-26T13:21:17.716Z,27.78
2019-02-26T13:22:00.128Z,27.78
2019-02-26T13:24:52.218Z,27.89
2019-02-26T13:25:27.302Z,27.59
2019-02-26T13:25:59.309Z,27.78
2019-02-26T13:26:38.898Z,27.5
2019-02-26T13:27:25.007Z,27.6
2019-02-26T13:27:57.110Z,27.5
2019-02-26T13:28:30.215Z,27.4
2019-02-26T13:29:02.305Z,27.5
2019-02-26T13:29:34.671Z,27.7
2019-02-26T13:30:06.828Z,27.5
2019-02-26T13:30:38.826Z,27.4
2019-02-26T13:31:18.901Z,27.4
2019-02-26T13:32:00.267Z,27.31
2019-02-26T13:32:55.061Z,27.4
2019-02-26T13:35:41.779Z,27.31
2019-02-26T13:36:29.664Z,27.51
2019-02-26T13:37:01.639Z,27.61
2019-02-26T13:37:42.304Z,27.32
2019-02-26T13:38:14.481Z,27.42
2019-02-26T13:38:49.740Z,27.12
2019-02-26T13:39:32.875Z,27.12
2019-02-26T13:40:17.023Z,27.23
2019-02-26T13:40:49.080Z,26.92
2019-02-26T13:41:30.510Z,27.02
2019-02-26T13:42:19.117Z,27.04
2019-02-26T13:43:36.327Z,27.14
2019-02-26T13:44:08.285Z,27.12
2019-02-26T13:44:40.280Z,26.93
2019-02-26T13:45:12.276Z,26.84
2019-02-26T13:45:44.266Z,26.84
2019-02-26T13:46:16.455Z,26.93
2019-02-26T13:46:48.458Z,26.74
2019-02-26T13:47:20.459Z,26.93
2019-02-26T13:48:00.441Z,27.04
2019-02-26T13:48:33.559Z,26.84
2019-02-26T13:49:05.563Z,27.23
2019-02-26T13:49:37.546Z,26.93
2019-02-26T13:50:09.546Z,27.14
2019-02-26T13:50:41.562Z,27.04
2019-02-26T13:51:13.564Z,27.04
2019-02-26T13:51:45.567Z,26.93
2019-02-26T13:52:17.552Z,27.04
2019-02-26T13:52:49.576Z,27.04
2019-02-26T13:53:21.578Z,27.05
2019-02-26T13:53:53.580Z,27.05
2019-02-26T13:54:25.592Z,27.23
2019-02-26T13:54:57.606Z,26.84
2019-02-26T13:55:29.658Z,26.95
2019-02-26T13:56:01.691Z,27.15
2019-02-26T13:56:33.756Z,26.95
2019-02-26T13:57:05.874Z,26.95
2019-02-26T13:57:40.070Z,26.85
2019-02-26T13:58:12.803Z,26.85
2019-02-26T13:58:44.917Z,26.95
2019-02-26T13:59:17.014Z,26.95
2019-02-26T13:59:49.051Z,27.05
2019-02-26T14:00:27.204Z,26.75
2019-02-26T14:00:59.239Z,26.95
2019-02-26T14:01:31.256Z,26.75
2019-02-26T14:02:03.324Z,26.95
2019-02-26T14:02:35.333Z,26.85
2019-02-26T14:03:07.930Z,26.85
2019-02-26T14:03:39.942Z,26.65
2019-02-26T14:04:12.042Z,26.46
2019-02-26T14:04:44.048Z,26.65
2019-02-26T14:05:16.384Z,26.85
2019-02-26T14:05:49.223Z,26.75
2019-02-26T14:06:21.565Z,26.75
2019-02-26T14:06:54.893Z,26.75
2019-02-26T14:07:26.905Z,26.85
2019-02-26T14:07:58.911Z,26.46
2019-02-26T14:08:30.942Z,26.46
2019-02-26T14:09:02.945Z,26.65
2019-02-26T14:09:34.984Z,26.46
2019-02-26T14:10:07.054Z,26.46
2019-02-26T14:10:39.069Z,26.46
2019-02-26T14:11:11.076Z,26.46
2019-02-26T14:11:43.104Z,26.46
2019-02-26T14:12:15.126Z,26.46
2019-02-26T14:12:47.170Z,26.56
2019-02-26T14:13:19.184Z,26.46
2019-02-26T14:13:51.198Z,26.46
2019-02-26T14:14:23.232Z,26.56
2019-02-26T14:14:55.299Z,26.56
2019-02-26T14:15:27.421Z,26.56
2019-02-26T14:15:59.466Z,26.56
2019-02-26T14:16:33.349Z,26.65
2019-02-26T14:17:05.383Z,26.46
2019-02-26T14:17:37.602Z,26.64
2019-02-26T14:18:10.315Z,26.75
2019-02-26T14:18:42.326Z,26.46
2019-02-26T14:19:14.860Z,26.65
2019-02-26T14:19:46.827Z,26.56
2019-02-26T14:20:18.859Z,26.54
2019-02-26T14:20:50.870Z,26.46
2019-02-26T14:21:22.881Z,26.64
2019-02-26T14:21:54.890Z,26.56
2019-02-26T14:22:26.891Z,26.54
2019-02-26T14:22:58.915Z,26.54
2019-02-26T14:23:35.873Z,26.54
2019-02-26T14:24:07.955Z,26.64
2019-02-26T14:24:39.961Z,26.64
2019-02-26T14:25:11.994Z,26.45
2019-02-26T14:25:44.091Z,26.54
2019-02-26T14:26:16.094Z,26.45
2019-02-26T14:26:48.430Z,26.45
2019-02-26T14:27:20.462Z,26.45
2019-02-26T14:27:52.522Z,26.54
2019-02-26T14:28:24.566Z,26.45
2019-02-26T14:28:56.550Z,26.54
2019-02-26T14:29:30.221Z,26.54
2019-02-26T14:30:02.441Z,26.54
2019-02-26T14:30:34.537Z,26.45
2019-02-26T14:31:06.810Z,26.54
2019-02-26T14:31:39.539Z,26.54
2019-02-26T14:32:11.529Z,26.54
2019-02-26T14:32:44.607Z,26.54
2019-02-26T14:33:16.611Z,26.54
2019-02-26T14:33:48.596Z,26.63
2019-02-26T14:34:20.615Z,26.54
2019-02-26T14:34:52.665Z,26.53
2019-02-26T14:35:24.688Z,26.53
2019-02-26T14:35:56.702Z,26.53
2019-02-26T14:36:28.786Z,26.63
2019-02-26T14:37:00.843Z,26.63
2019-02-26T14:37:32.869Z,26.63
2019-02-26T14:38:04.868Z,26.63
2019-02-26T14:38:36.931Z,26.43
2019-02-26T14:39:08.925Z,26.63
2019-02-26T14:39:40.971Z,26.43
2019-02-26T14:40:13.017Z,26.53
2019-02-26T14:40:45.015Z,26.53
2019-02-26T14:41:17.085Z,26.43
2019-02-26T14:41:49.105Z,26.42
2019-02-26T14:42:22.341Z,26.42
2019-02-26T14:42:54.957Z,26.52
2019-02-26T14:43:27.071Z,26.42
2019-02-26T14:44:00.056Z,26.42
2019-02-26T14:44:32.059Z,26.42
2019-02-26T14:45:04.504Z,26.32
2019-02-26T14:45:36.924Z,26.72
2019-02-26T14:46:08.924Z,26.31
2019-02-26T14:46:40.936Z,26.62
2019-02-26T14:47:12.932Z,26.62
2019-02-26T14:47:44.945Z,26.9
2019-02-26T14:48:16.963Z,26.7
2019-02-26T14:48:48.981Z,26.9
2019-02-26T14:49:21.001Z,27
2019-02-26T14:49:53.019Z,26.9
2019-02-26T14:50:32.955Z,27.19
2019-02-26T14:51:05.119Z,26.8
2019-02-26T14:51:37.128Z,27.08
2019-02-26T14:52:09.141Z,27.08
2019-02-26T14:52:41.152Z,26.98
2019-02-26T14:53:13.160Z,27.08
2019-02-26T14:53:45.169Z,26.97
2019-02-26T14:54:17.179Z,26.87
2019-02-26T14:54:49.179Z,26.87
2019-02-26T14:55:21.196Z,26.87
2019-02-26T14:55:53.671Z,26.96
2019-02-26T14:56:26.225Z,26.86
2019-02-26T14:56:58.478Z,27.06
2019-02-26T14:57:31.196Z,27.15
2019-02-26T14:58:03.516Z,27.14
2019-02-26T14:58:36.464Z,27.34
2019-02-26T14:59:08.488Z,27.34
2019-02-26T14:59:40.637Z,27.34
2019-02-26T15:00:12.639Z,27.23
2019-02-26T15:00:44.649Z,27.03
2019-02-26T15:01:16.660Z,27.72
2019-02-26T15:01:49.299Z,27.52
2019-02-26T15:02:21.319Z,27.31
2019-02-26T15:02:53.314Z,27.4
2019-02-26T15:03:25.305Z,27.5
2019-02-26T15:03:57.310Z,27.9
2019-02-26T15:04:29.328Z,27.69
2019-02-26T15:05:01.365Z,27.49
2019-02-26T15:05:33.378Z,27.69
2019-02-26T15:06:05.393Z,27.58
2019-02-26T15:06:37.416Z,27.77
2019-02-26T15:07:09.418Z,27.86
2019-02-26T15:07:41.434Z,28.05
2019-02-26T15:08:13.671Z,27.76
2019-02-26T15:08:45.902Z,27.86
2019-02-26T15:09:18.148Z,27.65
2019-02-26T15:09:51.022Z,28.14
2019-02-26T15:10:23.054Z,28.22
2019-02-26T15:10:55.290Z,28.42
2019-02-26T15:11:27.337Z,28.42
2019-02-26T15:11:59.341Z,28.22
2019-02-26T15:12:31.347Z,28.5
2019-02-26T15:13:03.354Z,28.2
2019-02-26T15:13:35.345Z,28.4
2019-02-26T15:14:07.362Z,28.4
2019-02-26T15:14:39.411Z,28.19
2019-02-26T15:15:11.429Z,28.58
2019-02-26T15:15:43.488Z,28.78
2019-02-26T15:16:15.547Z,28.68
2019-02-26T15:16:50.313Z,28.77
2019-02-26T15:17:22.378Z,28.77
2019-02-26T15:17:54.400Z,28.77
2019-02-26T15:18:26.438Z,28.85
2019-02-26T15:18:58.473Z,28.65
2019-02-26T15:19:30.527Z,28.75
2019-02-26T15:20:02.643Z,28.85
2019-02-26T15:20:34.987Z,28.83
2019-02-26T15:21:07.821Z,28.74
2019-02-26T15:21:40.108Z,28.83
2019-02-26T15:22:15.264Z,28.83
2019-02-26T15:22:47.561Z,29.3
2019-02-26T15:23:20.629Z,29.02
2019-02-26T15:23:52.661Z,28.82
2019-02-26T15:24:24.663Z,28.9
2019-02-26T15:24:56.660Z,28.82
2019-02-26T15:25:28.685Z,29
2019-02-26T15:26:00.734Z,29.19
2019-02-26T15:26:32.731Z,29.49
2019-02-26T15:27:04.742Z,29.29
2019-02-26T15:27:39.354Z,29.38
2019-02-26T15:28:11.355Z,29.57
2019-02-26T15:28:43.375Z,29.66
2019-02-26T15:29:15.376Z,29.38
2019-02-26T15:29:47.394Z,29.47
2019-02-26T15:30:19.393Z,29.55
2019-02-26T15:30:51.400Z,29.36
2019-02-26T15:31:23.434Z,29.65
2019-02-26T15:31:55.442Z,29.55
2019-02-26T15:32:27.449Z,29.64
2019-02-26T15:32:59.646Z,29.44
2019-02-26T15:33:31.808Z,29.44
2019-02-26T15:34:05.754Z,29.74
2019-02-26T15:34:38.513Z,29.83
2019-02-26T15:35:11.422Z,29.93
2019-02-26T15:35:44.203Z,30.01
2019-02-26T15:36:18.458Z,29.91
2019-02-26T15:36:51.208Z,29.62
2019-02-26T15:37:23.220Z,29.62
2019-02-26T15:37:55.263Z,29.62
2019-02-26T15:38:27.269Z,29.62
2019-02-26T15:38:59.322Z,29.71
2019-02-26T15:39:31.348Z,30.19
2019-02-26T15:40:03.340Z,30.19
2019-02-26T15:40:35.349Z,30.19
2019-02-26T15:41:07.388Z,30.09
2019-02-26T15:41:39.433Z,30.19
2019-02-26T15:42:11.434Z,30.18
2019-02-26T15:42:43.416Z,30.37
2019-02-26T15:43:15.417Z,29.98
2019-02-26T15:43:47.409Z,30.47
2019-02-26T15:44:19.457Z,30.37
2019-02-26T15:44:51.736Z,30.37
2019-02-26T15:45:24.523Z,30.47
2019-02-26T15:46:00.375Z,30.26
2019-02-26T15:46:32.418Z,30.45
2019-02-26T15:47:06.469Z,30.45
2019-02-26T15:47:40.434Z,30.45
2019-02-26T15:48:12.433Z,30.45
2019-02-26T15:48:44.627Z,30.54
2019-02-26T15:49:16.939Z,30.65
2019-02-26T15:49:49.253Z,30.63
2019-02-26T15:50:22.153Z,30.54
2019-02-26T15:50:54.157Z,30.54
2019-02-26T15:51:26.193Z,30.44
2019-02-26T15:51:58.238Z,30.44
2019-02-26T15:52:30.255Z,30.54
2019-02-26T15:53:02.250Z,30.44
2019-02-26T15:53:34.261Z,30.44
2019-02-26T15:54:06.259Z,30.32
2019-02-26T15:54:38.251Z,30.23
2019-02-26T15:55:10.258Z,30.62
2019-02-26T15:55:42.292Z,30.71
2019-02-26T15:56:14.305Z,30.71
2019-02-26T15:56:46.319Z,30.71
2019-02-26T15:57:18.309Z,30.69
2019-02-26T15:57:50.354Z,30.52
2019-02-26T15:58:22.368Z,30.51
2019-02-26T15:58:54.447Z,30.89
2019-02-26T15:59:26.473Z,31.18
2019-02-26T15:59:58.656Z,30.6
2019-02-26T16:00:31.592Z,30.79
2019-02-26T16:01:03.595Z,30.99
2019-02-26T16:01:36.109Z,31.09
2019-02-26T16:02:08.137Z,31.18
2019-02-26T16:02:40.117Z,31.09
2019-02-26T16:03:12.096Z,31.18
2019-02-26T16:03:44.107Z,31.16
2019-02-26T16:04:16.129Z,30.98
2019-02-26T16:04:48.122Z,30.98
2019-02-26T16:05:20.420Z,31.07
2019-02-26T16:05:54.442Z,31.07
2019-02-26T16:06:26.457Z,30.98
2019-02-26T16:06:58.467Z,30.78
2019-02-26T16:07:30.476Z,30.88
2019-02-26T16:08:02.532Z,31.07
2019-02-26T16:08:35.227Z,31.44
2019-02-26T16:09:09.340Z,31.15
2019-02-26T16:09:45.430Z,31.34
2019-02-26T16:10:19.424Z,31.15
2019-02-26T16:10:54.476Z,31.15
2019-02-26T16:11:26.487Z,31.15
2019-02-26T16:11:58.655Z,31.25
2019-02-26T16:12:30.670Z,31.15
2019-02-26T16:13:02.680Z,31.34
2019-02-26T16:13:34.690Z,31.44
2019-02-26T16:14:06.689Z,31.44
2019-02-26T16:14:39.302Z,31.62
2019-02-26T16:15:11.893Z,31.52
2019-02-26T16:15:44.215Z,31.43
2019-02-26T16:16:18.544Z,31.52
2019-02-26T16:16:50.571Z,31.43
2019-02-26T16:17:23.663Z,31.71
2019-02-26T16:17:59.371Z,31.43
2019-02-26T16:18:32.481Z,31.91
2019-02-26T16:19:04.497Z,31.71
2019-02-26T16:19:36.735Z,31.91
2019-02-26T16:20:08.704Z,31.8
2019-02-26T16:20:40.771Z,31.81
2019-02-26T16:21:12.793Z,31.99
2019-02-26T16:21:44.777Z,31.7
2019-02-26T16:22:16.798Z,31.89
2019-02-26T16:22:48.802Z,31.8
2019-02-26T16:23:20.818Z,31.99
2019-02-26T16:23:52.842Z,31.8
2019-02-26T16:24:24.863Z,31.89
2019-02-26T16:24:56.850Z,31.89
2019-02-26T16:25:28.843Z,31.99
2019-02-26T16:26:01.196Z,31.99
2019-02-26T16:26:33.178Z,31.89
2019-02-26T16:27:05.391Z,31.8
2019-02-26T16:27:38.318Z,32.09
2019-02-26T16:28:10.581Z,31.7
2019-02-26T16:28:43.165Z,32.17
2019-02-26T16:29:17.155Z,32.36
2019-02-26T16:29:50.148Z,32.17
2019-02-26T16:30:22.140Z,32.17
2019-02-26T16:30:56.503Z,32.26
2019-02-26T16:31:30.978Z,32.26
2019-02-26T16:32:05.948Z,32.17
2019-02-26T16:32:40.564Z,31.88
2019-02-26T16:33:14.818Z,31.88
2019-02-26T16:33:47.801Z,31.98
2019-02-26T16:34:21.054Z,31.98
2019-02-26T16:34:53.467Z,31.98
2019-02-26T16:35:26.479Z,32.17
2019-02-26T16:35:58.838Z,32.17
2019-02-26T16:36:32.611Z,32.15
2019-02-26T16:37:08.170Z,32.34
2019-02-26T16:37:42.531Z,32.24
2019-02-26T16:38:15.232Z,32.34
2019-02-26T16:38:51.634Z,32.15
2019-02-26T16:39:25.866Z,32.24
2019-02-26T16:39:59.086Z,32.34
2019-02-26T16:40:32.780Z,32.24
2019-02-26T16:41:06.047Z,32.24
2019-02-26T16:41:39.009Z,32.06
2019-02-26T16:42:12.656Z,32.15
2019-02-26T16:42:45.497Z,32.34
2019-02-26T16:43:18.445Z,32.34
2019-02-26T16:43:52.738Z,32.34
2019-02-26T16:44:25.411Z,32.15
2019-02-26T16:45:01.245Z,32.81
2019-02-26T16:45:35.663Z,32.73
2019-02-26T16:46:09.469Z,32.71
2019-02-26T16:46:43.054Z,32.64
2019-02-26T16:47:15.730Z,32.91
2019-02-26T16:47:49.499Z,32.14
2019-02-26T16:48:22.432Z,32.62
2019-02-26T16:48:54.558Z,32.14
2019-02-26T16:49:28.411Z,32.81
2019-02-26T16:50:24.997Z,32.62
2019-02-26T16:50:56.997Z,32.91
2019-02-26T16:51:29.035Z,32.91
2019-02-26T16:52:01.419Z,32.91
2019-02-26T16:52:33.432Z,32.81
2019-02-26T16:53:05.509Z,33
2019-02-26T16:53:37.507Z,33
2019-02-26T16:54:09.707Z,32.71
2019-02-26T16:54:42.378Z,32.71
2019-02-26T16:55:17.741Z,32.81
2019-02-26T16:55:50.658Z,32.79
2019-02-26T16:56:22.912Z,33.28
2019-02-26T16:56:55.929Z,33.18
2019-02-26T16:57:29.243Z,32.52
2019-02-26T16:58:03.743Z,33.09
2019-02-26T16:58:36.479Z,33.09
2019-02-26T16:59:08.776Z,32.99
2019-02-26T16:59:41.449Z,32.21
2019-02-26T17:00:16.678Z,33.09
2019-02-26T17:00:49.819Z,32.79
2019-02-26T17:01:22.885Z,32.79
2019-02-26T17:01:55.932Z,32.7
2019-02-26T17:02:28.491Z,32.79
2019-02-26T17:03:01.677Z,32.89
2019-02-26T17:03:34.747Z,33.09
2019-02-26T17:04:08.914Z,33.18
2019-02-26T17:04:41.504Z,33.18
2019-02-26T17:05:15.545Z,33.28
2019-02-26T17:05:48.281Z,33.18
2019-02-26T17:06:21.555Z,33.09
2019-02-26T17:06:54.871Z,33.09
2019-02-26T17:07:26.888Z,33.18
2019-02-26T17:07:58.889Z,33.37
2019-02-26T17:08:30.929Z,33.37
2019-02-26T17:09:02.928Z,33.28
2019-02-26T17:09:34.909Z,33.18
2019-02-26T17:10:06.906Z,33.09
2019-02-26T17:10:40.678Z,32.99
2019-02-26T17:11:14.361Z,33.26
2019-02-26T17:11:47.600Z,33.17
2019-02-26T17:12:19.619Z,33.26
2019-02-26T17:12:51.624Z,33.07
2019-02-26T17:13:23.782Z,33.26
2019-02-26T17:13:56.423Z,33.07
2019-02-26T17:14:28.422Z,33.17
2019-02-26T17:15:01.156Z,33.26
2019-02-26T17:15:33.175Z,33.26
2019-02-26T17:16:05.189Z,33.45
2019-02-26T17:16:37.195Z,33.17
2019-02-26T17:17:09.192Z,33.26
2019-02-26T17:17:41.697Z,33.26
2019-02-26T17:18:13.740Z,32.78
2019-02-26T17:18:47.832Z,33.45
2019-02-26T17:19:19.854Z,33.17
2019-02-26T17:19:51.852Z,33.17
2019-02-26T17:20:23.885Z,33.17
2019-02-26T17:20:57.969Z,33.17
2019-02-26T17:21:31.582Z,32.97
2019-02-26T17:22:05.531Z,32.97
2019-02-26T17:22:41.654Z,33.36
2019-02-26T17:23:14.891Z,33.17
2019-02-26T17:23:48.026Z,33.17
2019-02-26T17:24:21.371Z,33.26
2019-02-26T17:24:54.194Z,33.25
2019-02-26T17:25:29.267Z,33.26
2019-02-26T17:26:02.163Z,33.34
2019-02-26T17:26:34.377Z,33.25
2019-02-26T17:27:06.963Z,33.25
2019-02-26T17:27:39.995Z,33.53
2019-02-26T17:28:13.253Z,33.44
2019-02-26T17:28:45.250Z,33.53
2019-02-26T17:29:19.702Z,33.34
2019-02-26T17:29:51.814Z,33.44
2019-02-26T17:30:24.758Z,33.25
2019-02-26T17:30:58.319Z,33.53
2019-02-26T17:31:31.654Z,33.53
2019-02-26T17:32:05.173Z,33.25
2019-02-26T17:32:39.229Z,33.34
2019-02-26T17:33:14.568Z,33.25
2019-02-26T17:33:47.607Z,33.25
2019-02-26T17:34:23.431Z,33.34
2019-02-26T17:34:56.308Z,33.34
2019-02-26T17:35:30.030Z,33.44
2019-02-26T17:36:02.988Z,33.44
2019-02-26T17:36:36.343Z,33.44
2019-02-26T17:37:09.475Z,33.53
2019-02-26T17:37:42.526Z,33.53
2019-02-26T17:38:18.749Z,33.53